Time;durP1;ratioP1;P1;durP2;ratioP2;P2;SDS_P1;SDS_P2;PMS_P1;PMS_P2;Temp;Humidity;BMP_temperature;BMP_pressure;BME280_temperature;BME280_humidity;BME280_pressure;Samples;Min_cycle;Max_cycle;Signal;HPM_P1;HPM_P2
2022/12/01 00:00:15;;;;;;;553.90;193.67;;;;;;;;;;4944848;28;20552;-53
2022/12/01 00:02:41;;;;;;;460.90;168.30;;;;;;;;;;4949449;28;20229;-53
2022/12/01 00:05:07;;;;;;;505.80;173.27;;;;;;;;;;4946907;28;20206;-54
2022/12/01 00:07:33;;;;;;;346.90;127.27;;;;;;;;;;4943051;28;20182;-54
2022/12/01 00:12:43;;;;;;;539.23;200.37;;;;;;;;;;4949601;28;20277;-54
2022/12/01 00:15:12;;;;;;;363.27;143.17;;;;;;;;;;4941727;28;20222;-54
2022/12/01 00:17:38;;;;;;;502.70;172.80;;;;;;;;;;4952829;28;20214;-54
2022/12/01 00:20:05;;;;;;;538.13;182.80;;;;;;;;;;4943061;28;20253;-53
2022/12/01 00:22:31;;;;;;;528.47;193.97;;;;;;;;;;4938625;28;20483;-53
2022/12/01 00:24:57;;;;;;;502.03;175.37;;;;;;;;;;4951013;28;20941;-54
2022/12/01 00:27:23;;;;;;;520.93;183.17;;;;;;;;;;4945408;28;20337;-55
2022/12/01 00:29:49;;;;;;;416.47;150.63;;;;;;;;;;4951120;28;20264;-53
2022/12/01 00:32:14;;;;;;;454.67;153.90;;;;;;;;;;4951054;28;20615;-54
2022/12/01 00:34:40;;;;;;;498.10;186.13;;;;;;;;;;4938323;28;20363;-53
2022/12/01 00:37:06;;;;;;;512.30;185.53;;;;;;;;;;4934658;28;20293;-53
2022/12/01 00:39:32;;;;;;;591.17;207.17;;;;;;;;;;4933699;28;20230;-54
2022/12/01 00:41:58;;;;;;;505.83;183.60;;;;;;;;;;4926280;28;20229;-55
2022/12/01 00:44:24;;;;;;;469.37;165.30;;;;;;;;;;4937238;28;20552;-53
2022/12/01 00:46:50;;;;;;;362.87;130.43;;;;;;;;;;4952980;28;20190;-53
2022/12/01 00:49:16;;;;;;;339.10;128.43;;;;;;;;;;4941876;28;20222;-54
2022/12/01 00:51:42;;;;;;;392.30;147.27;;;;;;;;;;4946859;28;20225;-53
2022/12/01 00:54:08;;;;;;;584.17;204.37;;;;;;;;;;4936878;28;20270;-54
2022/12/01 00:56:34;;;;;;;563.37;197.47;;;;;;;;;;4940070;28;20248;-53
2022/12/01 00:59:00;;;;;;;453.27;171.60;;;;;;;;;;4943775;28;20186;-53
2022/12/01 01:01:26;;;;;;;503.50;179.63;;;;;;;;;;4939870;28;20563;-54
2022/12/01 01:03:52;;;;;;;406.37;148.90;;;;;;;;;;4948524;28;20225;-55
2022/12/01 01:06:18;;;;;;;452.30;159.07;;;;;;;;;;4942177;28;20237;-55
2022/12/01 01:08:43;;;;;;;538.33;205.43;;;;;;;;;;4936897;28;20638;-53
2022/12/01 01:11:09;;;;;;;421.47;151.27;;;;;;;;;;4938891;28;20190;-53
2022/12/01 01:13:37;;;;;;;474.03;174.40;;;;;;;;;;4945319;28;20330;-55
2022/12/01 01:16:21;;;;;;;362.63;132.50;;;;;;;;;;4951037;28;20271;-54
2022/12/01 01:18:47;;;;;;;427.20;166.53;;;;;;;;;;4938927;28;20214;-54
2022/12/01 01:21:15;;;;;;;447.83;168.07;;;;;;;;;;4951964;28;20209;-55
2022/12/01 01:23:41;;;;;;;435.37;162.57;;;;;;;;;;4945445;28;20222;-55
2022/12/01 01:26:17;;;;;;;351.90;127.37;;;;;;;;;;4942486;28;20277;-54
2022/12/01 01:28:43;;;;;;;337.23;125.23;;;;;;;;;;4948620;28;20244;-55
2022/12/01 01:31:10;;;;;;;408.97;160.87;;;;;;;;;;4940609;28;20215;-54
2022/12/01 01:33:36;;;;;;;487.40;180.57;;;;;;;;;;4935056;28;20215;-52
2022/12/01 01:36:03;;;;;;;470.23;172.00;;;;;;;;;;4943794;28;20937;-53
2022/12/01 01:38:29;;;;;;;509.43;183.83;;;;;;;;;;4938355;28;20329;-53
2022/12/01 01:40:55;;;;;;;435.90;156.43;;;;;;;;;;4944083;28;20186;-54
2022/12/01 01:43:40;;;;;;;402.00;160.00;;;;;;;;;;4941939;28;20232;-55
2022/12/01 01:46:06;;;;;;;466.73;169.27;;;;;;;;;;4950675;28;20232;-54
2022/12/01 01:48:33;;;;;;;492.40;178.50;;;;;;;;;;4941772;28;21467;-53
2022/12/01 01:50:59;;;;;;;496.67;183.03;;;;;;;;;;4938606;28;20224;-54
2022/12/01 01:53:26;;;;;;;435.43;167.10;;;;;;;;;;4935987;28;20306;-54
2022/12/01 01:55:52;;;;;;;467.20;160.77;;;;;;;;;;4943831;28;20434;-54
2022/12/01 01:58:19;;;;;;;394.90;143.30;;;;;;;;;;4968104;28;20229;-54
2022/12/01 02:00:45;;;;;;;468.67;155.63;;;;;;;;;;4946697;28;20328;-53
2022/12/01 02:03:12;;;;;;;494.87;178.30;;;;;;;;;;4945895;28;20234;-53
2022/12/01 02:05:39;;;;;;;509.77;182.77;;;;;;;;;;4935399;28;20733;-53
2022/12/01 02:08:11;;;;;;;461.13;173.97;;;;;;;;;;4943770;28;20193;-54
2022/12/01 02:10:59;;;;;;;442.70;159.90;;;;;;;;;;4938749;28;20182;-54
2022/12/01 02:13:32;;;;;;;403.47;148.87;;;;;;;;;;4952076;28;20262;-54
2022/12/01 02:16:08;;;;;;;468.63;155.40;;;;;;;;;;4953250;28;20209;-53
2022/12/01 02:18:57;;;;;;;410.90;141.63;;;;;;;;;;4947878;28;20221;-53
2022/12/01 02:21:35;;;;;;;541.83;185.77;;;;;;;;;;4923384;28;20218;-54
2022/12/01 02:24:10;;;;;;;550.07;202.23;;;;;;;;;;4952444;28;20216;-55
2022/12/01 02:26:42;;;;;;;349.90;135.60;;;;;;;;;;4963847;28;20232;-55
2022/12/01 02:29:24;;;;;;;405.50;152.80;;;;;;;;;;4973006;28;21103;-54
2022/12/01 02:31:50;;;;;;;456.53;168.53;;;;;;;;;;4972187;28;20185;-54
2022/12/01 02:34:29;;;;;;;412.10;147.80;;;;;;;;;;4960569;28;20762;-54
2022/12/01 02:37:06;;;;;;;485.73;162.43;;;;;;;;;;4966913;28;20221;-53
2022/12/01 02:39:34;;;;;;;410.00;156.83;;;;;;;;;;4963947;28;20229;-55
2022/12/01 02:42:47;;;;;;;464.07;171.47;;;;;;;;;;4964050;28;20231;-53
2022/12/01 02:45:01;;;;;;;474.07;176.57;;;;;;;;;;4957738;28;21499;-54
2022/12/01 02:47:27;;;;;;;498.57;182.40;;;;;;;;;;4965002;28;20214;-54
2022/12/01 02:49:54;;;;;;;433.77;156.60;;;;;;;;;;4970613;28;20185;-53
2022/12/01 02:52:21;;;;;;;539.60;192.67;;;;;;;;;;4966713;28;20931;-54
2022/12/01 02:54:47;;;;;;;434.43;153.77;;;;;;;;;;4962949;28;20227;-53
2022/12/01 02:57:14;;;;;;;617.10;223.60;;;;;;;;;;4960361;28;20223;-53
2022/12/01 02:59:46;;;;;;;519.03;188.13;;;;;;;;;;4964529;28;20614;-53
2022/12/01 03:02:26;;;;;;;597.43;212.53;;;;;;;;;;4963769;28;20216;-53
2022/12/01 03:04:56;;;;;;;400.13;140.67;;;;;;;;;;4960203;28;20268;-53
2022/12/01 03:07:39;;;;;;;577.03;200.73;;;;;;;;;;4957479;28;20777;-54
2022/12/01 03:10:23;;;;;;;430.27;159.37;;;;;;;;;;4967909;28;20248;-53
2022/12/01 03:12:58;;;;;;;550.53;195.03;;;;;;;;;;4966124;28;21029;-54
2022/12/01 03:15:24;;;;;;;517.70;191.57;;;;;;;;;;4959966;28;20748;-52
2022/12/01 03:18:10;;;;;;;547.93;205.73;;;;;;;;;;4959805;28;20220;-54
2022/12/01 03:20:42;;;;;;;540.63;195.20;;;;;;;;;;4922861;28;20221;-53
2022/12/01 03:23:11;;;;;;;446.00;168.70;;;;;;;;;;4968312;28;20725;-53
2022/12/01 03:25:38;;;;;;;359.70;139.87;;;;;;;;;;4960311;28;20220;-52
2022/12/01 03:28:05;;;;;;;508.57;180.83;;;;;;;;;;4951093;28;20213;-54
2022/12/01 03:30:35;;;;;;;400.70;145.13;;;;;;;;;;4965935;28;20243;-52
2022/12/01 03:33:03;;;;;;;613.40;220.13;;;;;;;;;;4959375;28;20706;-52
2022/12/01 03:35:33;;;;;;;468.40;179.80;;;;;;;;;;4958869;28;20205;-51
2022/12/01 03:38:01;;;;;;;413.77;159.67;;;;;;;;;;4964144;28;20178;-54
2022/12/01 03:40:30;;;;;;;415.27;155.67;;;;;;;;;;4966889;28;20245;-52
2022/12/01 03:43:16;;;;;;;481.00;179.93;;;;;;;;;;4963745;28;20228;-53
2022/12/01 03:45:47;;;;;;;432.73;155.13;;;;;;;;;;4968309;28;20294;-52
2022/12/01 03:48:13;;;;;;;503.03;184.10;;;;;;;;;;4960660;28;20244;-52
2022/12/01 03:50:54;;;;;;;419.40;164.70;;;;;;;;;;4964507;28;20210;-52
2022/12/01 03:53:26;;;;;;;504.23;180.37;;;;;;;;;;4957529;28;20230;-53
2022/12/01 03:55:56;;;;;;;507.70;183.97;;;;;;;;;;4957675;28;20201;-52
2022/12/01 03:58:24;;;;;;;553.93;194.57;;;;;;;;;;4966578;28;20251;-53
2022/12/01 04:00:54;;;;;;;399.87;149.13;;;;;;;;;;4952716;28;20348;-53
2022/12/01 04:03:22;;;;;;;378.17;148.50;;;;;;;;;;4967012;28;20712;-54
2022/12/01 04:05:48;;;;;;;654.80;230.53;;;;;;;;;;4952672;28;20230;-52
2022/12/01 04:08:14;;;;;;;416.50;152.13;;;;;;;;;;4956982;28;20221;-52
2022/12/01 04:10:40;;;;;;;528.37;180.33;;;;;;;;;;4961629;28;20305;-52
2022/12/01 04:13:10;;;;;;;541.30;198.60;;;;;;;;;;4961409;28;20369;-52
2022/12/01 04:15:37;;;;;;;461.27;173.47;;;;;;;;;;4953414;28;20221;-52
2022/12/01 04:18:04;;;;;;;402.10;146.27;;;;;;;;;;4958060;28;20861;-52
2022/12/01 04:20:30;;;;;;;464.67;153.80;;;;;;;;;;4967880;28;20886;-53
2022/12/01 04:22:56;;;;;;;552.07;210.07;;;;;;;;;;4963076;28;20201;-52
2022/12/01 04:25:22;;;;;;;446.17;173.30;;;;;;;;;;4963174;28;20239;-52
2022/12/01 04:27:48;;;;;;;517.13;186.80;;;;;;;;;;4958781;28;23083;-53
2022/12/01 04:30:14;;;;;;;425.20;160.47;;;;;;;;;;4966939;28;20244;-53
2022/12/01 04:32:41;;;;;;;572.23;212.63;;;;;;;;;;4959942;28;20224;-53
2022/12/01 04:35:08;;;;;;;453.73;172.90;;;;;;;;;;4966208;28;20228;-53
2022/12/01 04:37:34;;;;;;;450.23;169.70;;;;;;;;;;4971583;28;20185;-52
2022/12/01 04:40:00;;;;;;;523.57;189.87;;;;;;;;;;4960365;28;20255;-52
2022/12/01 04:42:26;;;;;;;441.77;162.03;;;;;;;;;;4961253;28;20599;-53
2022/12/01 04:44:52;;;;;;;560.00;205.20;;;;;;;;;;4961885;28;20252;-52
2022/12/01 04:47:18;;;;;;;413.97;150.70;;;;;;;;;;4962408;28;20243;-53
2022/12/01 04:49:44;;;;;;;507.90;189.83;;;;;;;;;;4960309;28;20287;-53
2022/12/01 04:52:10;;;;;;;632.07;249.70;;;;;;;;;;4953427;28;20869;-54
2022/12/01 04:54:35;;;;;;;577.67;212.17;;;;;;;;;;4954626;28;20540;-54
2022/12/01 04:57:01;;;;;;;370.17;135.40;;;;;;;;;;4957398;28;20445;-53
2022/12/01 04:59:27;;;;;;;364.60;144.70;;;;;;;;;;4960232;28;20241;-54
2022/12/01 05:01:53;;;;;;;560.53;200.63;;;;;;;;;;4964007;28;20194;-52
2022/12/01 05:04:19;;;;;;;440.17;167.33;;;;;;;;;;4960254;28;20246;-53
2022/12/01 05:06:45;;;;;;;545.30;194.13;;;;;;;;;;4956794;28;20580;-53
2022/12/01 05:09:14;;;;;;;501.73;187.63;;;;;;;;;;4959114;28;20228;-53
2022/12/01 05:11:40;;;;;;;373.17;135.57;;;;;;;;;;4970703;28;20313;-54
2022/12/01 05:14:06;;;;;;;405.67;159.07;;;;;;;;;;4972121;28;20310;-55
2022/12/01 05:16:33;;;;;;;515.07;186.50;;;;;;;;;;4977889;28;20692;-55
2022/12/01 05:21:45;;;;;;;525.07;202.90;;;;;;;;;;4968000;28;20940;-52
2022/12/01 05:24:12;;;;;;;444.73;156.90;;;;;;;;;;4973651;28;20237;-53
2022/12/01 05:26:38;;;;;;;390.90;141.53;;;;;;;;;;4974490;28;20240;-55
2022/12/01 05:29:04;;;;;;;519.20;182.77;;;;;;;;;;4963624;28;20682;-55
2022/12/01 05:31:30;;;;;;;572.00;215.20;;;;;;;;;;4969213;28;20198;-53
2022/12/01 05:33:56;;;;;;;426.03;171.53;;;;;;;;;;4971750;28;20684;-54
2022/12/01 05:36:22;;;;;;;505.10;196.33;;;;;;;;;;4972936;28;20305;-53
2022/12/01 05:38:48;;;;;;;495.00;179.03;;;;;;;;;;4967911;28;20221;-53
2022/12/01 05:41:14;;;;;;;524.53;182.73;;;;;;;;;;4963386;28;20236;-54
2022/12/01 05:43:40;;;;;;;455.60;167.90;;;;;;;;;;4971451;28;20615;-52
2022/12/01 05:46:06;;;;;;;516.43;183.37;;;;;;;;;;4974203;28;20260;-54
2022/12/01 05:48:32;;;;;;;515.07;190.27;;;;;;;;;;4968714;28;20217;-54
2022/12/01 05:50:58;;;;;;;493.67;176.40;;;;;;;;;;4973848;28;20209;-54
2022/12/01 05:53:24;;;;;;;408.43;153.43;;;;;;;;;;4962548;28;20213;-54
2022/12/01 05:55:53;;;;;;;385.43;145.27;;;;;;;;;;4964898;28;20182;-54
2022/12/01 05:58:20;;;;;;;513.53;180.50;;;;;;;;;;4969236;28;20267;-54
2022/12/01 06:00:46;;;;;;;447.60;156.57;;;;;;;;;;4971520;28;20225;-53
2022/12/01 06:03:12;;;;;;;519.03;201.30;;;;;;;;;;4962371;28;20233;-52
2022/12/01 06:05:38;;;;;;;462.07;177.97;;;;;;;;;;4963826;28;20287;-52
2022/12/01 06:08:04;;;;;;;533.43;203.40;;;;;;;;;;4964154;28;20658;-52
2022/12/01 06:10:30;;;;;;;350.10;141.73;;;;;;;;;;4972500;28;20190;-54
2022/12/01 06:12:56;;;;;;;610.87;231.60;;;;;;;;;;4968545;28;20225;-54
2022/12/01 06:15:22;;;;;;;514.53;192.40;;;;;;;;;;4946349;28;20210;-54
2022/12/01 06:17:48;;;;;;;534.33;204.33;;;;;;;;;;4951883;28;20228;-53
2022/12/01 06:20:14;;;;;;;612.77;220.20;;;;;;;;;;4939383;28;22188;-54
2022/12/01 06:22:40;;;;;;;509.00;193.97;;;;;;;;;;4952048;28;20223;-54
2022/12/01 06:25:06;;;;;;;527.07;199.57;;;;;;;;;;4952827;28;20819;-53
2022/12/01 06:27:32;;;;;;;420.30;157.37;;;;;;;;;;4959194;28;20249;-55
2022/12/01 06:29:58;;;;;;;395.80;148.43;;;;;;;;;;4972330;28;20272;-55
2022/12/01 06:32:24;;;;;;;490.30;191.90;;;;;;;;;;4958275;28;20221;-54
2022/12/01 06:34:50;;;;;;;373.97;147.83;;;;;;;;;;4966767;28;20506;-55
2022/12/01 06:37:16;;;;;;;450.77;164.23;;;;;;;;;;4947444;28;20494;-53
2022/12/01 06:39:42;;;;;;;506.57;187.43;;;;;;;;;;4950376;28;20686;-52
2022/12/01 06:42:08;;;;;;;546.10;202.60;;;;;;;;;;4961592;28;20221;-54
2022/12/01 06:44:34;;;;;;;503.73;190.27;;;;;;;;;;4968706;28;20209;-52
2022/12/01 06:47:00;;;;;;;506.40;174.87;;;;;;;;;;4974896;28;20185;-53
2022/12/01 06:49:26;;;;;;;431.77;169.47;;;;;;;;;;4967024;28;20645;-54
2022/12/01 06:51:52;;;;;;;344.80;137.73;;;;;;;;;;4965735;28;20221;-52
2022/12/01 06:54:20;;;;;;;447.07;180.73;;;;;;;;;;4974919;28;20240;-52
2022/12/01 06:56:46;;;;;;;423.70;165.03;;;;;;;;;;4974158;28;20232;-52
2022/12/01 06:59:12;;;;;;;491.33;176.77;;;;;;;;;;4960530;28;20256;-51
2022/12/01 07:01:38;;;;;;;454.80;166.07;;;;;;;;;;4965799;28;20659;-52
2022/12/01 07:04:04;;;;;;;310.30;114.30;;;;;;;;;;4968728;28;20312;-55
2022/12/01 07:06:30;;;;;;;466.67;169.63;;;;;;;;;;4964649;28;20324;-54
2022/12/01 07:08:56;;;;;;;518.77;198.87;;;;;;;;;;4959704;28;20225;-53
2022/12/01 07:11:22;;;;;;;593.50;214.43;;;;;;;;;;4956827;28;20232;-53
2022/12/01 07:13:49;;;;;;;442.37;166.73;;;;;;;;;;4957282;28;20221;-52
2022/12/01 07:16:15;;;;;;;770.47;318.10;;;;;;;;;;4952725;28;20335;-54
2022/12/01 07:18:43;;;;;;;496.83;190.80;;;;;;;;;;4923217;28;20222;-54
2022/12/01 07:21:11;;;;;;;411.73;149.30;;;;;;;;;;4955057;28;20670;-52
2022/12/01 07:23:37;;;;;;;481.07;157.43;;;;;;;;;;4949820;28;21735;-54
2022/12/01 07:26:07;;;;;;;447.37;154.77;;;;;;;;;;4957328;28;20213;-54
2022/12/01 07:28:33;;;;;;;512.90;177.67;;;;;;;;;;4955438;28;20634;-52
2022/12/01 07:31:00;;;;;;;334.60;127.53;;;;;;;;;;4958226;28;20218;-54
2022/12/01 07:33:26;;;;;;;584.87;190.87;;;;;;;;;;4950866;28;20275;-55
2022/12/01 07:35:53;;;;;;;425.23;142.23;;;;;;;;;;4947239;28;20351;-52
2022/12/01 07:38:19;;;;;;;619.80;192.67;;;;;;;;;;4950841;28;20224;-57
2022/12/01 07:40:44;;;;;;;472.47;158.50;;;;;;;;;;4958044;28;20324;-57
2022/12/01 07:43:10;;;;;;;572.77;193.23;;;;;;;;;;4960539;28;20229;-55
2022/12/01 07:45:36;;;;;;;461.40;152.13;;;;;;;;;;4956296;28;20221;-53
2022/12/01 07:48:02;;;;;;;478.10;154.30;;;;;;;;;;4962104;28;20336;-54
2022/12/01 07:50:28;;;;;;;592.57;198.27;;;;;;;;;;4956422;28;20206;-53
2022/12/01 07:52:54;;;;;;;498.73;167.20;;;;;;;;;;4949008;28;20216;-54
2022/12/01 07:55:20;;;;;;;575.60;197.00;;;;;;;;;;4955815;28;20186;-53
2022/12/01 07:57:46;;;;;;;554.67;181.37;;;;;;;;;;4960360;28;20320;-52
2022/12/01 08:00:12;;;;;;;486.97;160.70;;;;;;;;;;4953596;28;20251;-52
2022/12/01 08:02:38;;;;;;;475.87;158.80;;;;;;;;;;4955029;28;24463;-53
2022/12/01 08:05:04;;;;;;;482.03;166.60;;;;;;;;;;4961795;28;20201;-55
2022/12/01 08:07:30;;;;;;;523.00;171.57;;;;;;;;;;4962656;28;25107;-55
2022/12/01 08:09:56;;;;;;;448.93;149.87;;;;;;;;;;4948378;28;20846;-52
2022/12/01 08:12:22;;;;;;;508.27;171.97;;;;;;;;;;4961013;28;20250;-53
2022/12/01 08:14:48;;;;;;;494.33;159.77;;;;;;;;;;4958346;28;20606;-54
2022/12/01 08:17:14;;;;;;;389.13;138.23;;;;;;;;;;4975729;28;20217;-52
2022/12/01 08:19:40;;;;;;;419.50;140.40;;;;;;;;;;4960422;28;20266;-55
2022/12/01 08:22:06;;;;;;;411.60;144.57;;;;;;;;;;4957319;28;20460;-53
2022/12/01 08:24:32;;;;;;;494.30;160.03;;;;;;;;;;4941807;28;20264;-53
2022/12/01 08:26:58;;;;;;;522.93;166.67;;;;;;;;;;4958082;28;20633;-54
2022/12/01 08:29:24;;;;;;;531.07;188.17;;;;;;;;;;4949141;28;20776;-53
2022/12/01 08:31:50;;;;;;;441.57;145.23;;;;;;;;;;4960972;28;20225;-54
2022/12/01 08:34:16;;;;;;;479.50;169.20;;;;;;;;;;4964504;28;20289;-54
2022/12/01 08:36:42;;;;;;;562.00;188.90;;;;;;;;;;4955041;28;20221;-52
2022/12/01 08:39:08;;;;;;;592.33;191.10;;;;;;;;;;4955606;28;20217;-51
2022/12/01 08:41:34;;;;;;;401.03;129.73;;;;;;;;;;4968285;28;20241;-56
2022/12/01 08:44:00;;;;;;;574.60;210.17;;;;;;;;;;4964648;28;20224;-51
2022/12/01 08:46:33;;;;;;;569.97;184.03;;;;;;;;;;4967751;28;20225;-53
2022/12/01 08:48:59;;;;;;;432.77;143.83;;;;;;;;;;4973134;28;20614;-53
2022/12/01 08:51:25;;;;;;;732.17;240.70;;;;;;;;;;4959852;28;20221;-51
2022/12/01 08:53:51;;;;;;;654.77;215.67;;;;;;;;;;4956020;28;20228;-53
2022/12/01 08:56:25;;;;;;;442.17;148.80;;;;;;;;;;4944518;28;20209;-52
2022/12/01 08:58:51;;;;;;;468.47;156.67;;;;;;;;;;4942543;28;21060;-54
2022/12/01 09:01:19;;;;;;;435.03;144.67;;;;;;;;;;4966170;28;20221;-53
2022/12/01 09:03:46;;;;;;;547.43;171.57;;;;;;;;;;4945786;28;20267;-54
2022/12/01 09:06:16;;;;;;;430.00;139.57;;;;;;;;;;4946128;28;20433;-52
2022/12/01 09:08:43;;;;;;;589.87;193.20;;;;;;;;;;4950989;28;20582;-54
2022/12/01 09:11:10;;;;;;;499.37;152.03;;;;;;;;;;4954587;28;20194;-54
2022/12/01 09:13:38;;;;;;;427.10;144.60;;;;;;;;;;4956654;28;20222;-54
2022/12/01 09:16:05;;;;;;;433.53;137.90;;;;;;;;;;4950522;28;20213;-53
2022/12/01 09:18:31;;;;;;;452.63;141.77;;;;;;;;;;4956900;28;20217;-55
2022/12/01 09:20:57;;;;;;;552.67;175.93;;;;;;;;;;4963097;28;20221;-52
2022/12/01 09:23:24;;;;;;;472.17;147.63;;;;;;;;;;4966269;28;20318;-53
2022/12/01 09:25:50;;;;;;;545.40;177.13;;;;;;;;;;4955384;28;20809;-51
2022/12/01 09:28:19;;;;;;;425.30;139.17;;;;;;;;;;4959724;28;20272;-53
2022/12/01 09:30:46;;;;;;;539.20;172.40;;;;;;;;;;4950111;28;20316;-53
2022/12/01 09:33:12;;;;;;;648.10;211.67;;;;;;;;;;4952258;28;20232;-53
2022/12/01 09:35:39;;;;;;;491.23;154.70;;;;;;;;;;4964098;28;20981;-52
2022/12/01 09:38:05;;;;;;;428.13;143.33;;;;;;;;;;4963549;28;20217;-51
2022/12/01 09:40:33;;;;;;;474.10;151.67;;;;;;;;;;4953171;28;20352;-52
2022/12/01 09:43:00;;;;;;;522.83;178.93;;;;;;;;;;4966643;28;20246;-53
2022/12/01 09:45:29;;;;;;;508.63;156.87;;;;;;;;;;4955483;28;20694;-52
2022/12/01 09:47:56;;;;;;;513.27;186.20;;;;;;;;;;4957451;28;20209;-53
2022/12/01 09:50:24;;;;;;;464.20;156.60;;;;;;;;;;4961236;28;20206;-52
2022/12/01 09:52:52;;;;;;;440.57;146.13;;;;;;;;;;4968781;28;20209;-52
2022/12/01 09:55:19;;;;;;;367.67;138.40;;;;;;;;;;4959473;28;20234;-52
2022/12/01 09:57:49;;;;;;;614.33;206.80;;;;;;;;;;4957524;28;20267;-52
2022/12/01 10:00:18;;;;;;;583.07;186.90;;;;;;;;;;4942915;28;20222;-54
2022/12/01 10:02:48;;;;;;;467.50;150.10;;;;;;;;;;4941317;28;20225;-53
2022/12/01 10:05:18;;;;;;;562.13;190.93;;;;;;;;;;4944553;28;20589;-54
2022/12/01 10:07:47;;;;;;;413.03;141.10;;;;;;;;;;4936843;28;20197;-52
2022/12/01 10:10:15;;;;;;;540.50;186.63;;;;;;;;;;4954557;28;20220;-53
2022/12/01 10:12:42;;;;;;;466.07;173.93;;;;;;;;;;4949155;28;20674;-54
2022/12/01 10:15:23;;;;;;;553.67;180.87;;;;;;;;;;4951608;28;20802;-54
2022/12/01 10:18:08;;;;;;;556.90;192.87;;;;;;;;;;4928942;28;21875;-52
2022/12/01 10:20:40;;;;;;;586.07;217.37;;;;;;;;;;4960202;28;20251;-54
2022/12/01 10:23:29;;;;;;;355.53;127.63;;;;;;;;;;4967441;28;20213;-54
2022/12/01 10:25:56;;;;;;;415.03;143.10;;;;;;;;;;4969737;28;20270;-52
2022/12/01 10:28:40;;;;;;;421.30;146.87;;;;;;;;;;4974194;28;20209;-52
2022/12/01 10:31:25;;;;;;;390.07;134.97;;;;;;;;;;4977946;28;20217;-54
2022/12/01 10:34:10;;;;;;;410.10;148.60;;;;;;;;;;4972953;28;20315;-54
2022/12/01 10:36:36;;;;;;;592.27;207.00;;;;;;;;;;4960883;28;20263;-53
2022/12/01 10:39:05;;;;;;;584.70;213.93;;;;;;;;;;4967650;28;20543;-54
2022/12/01 10:41:33;;;;;;;466.90;162.73;;;;;;;;;;4967980;28;20359;-53
2022/12/01 10:43:59;;;;;;;473.43;163.40;;;;;;;;;;4969854;28;20216;-53
2022/12/01 10:46:46;;;;;;;480.07;175.83;;;;;;;;;;4963553;28;20217;-52
2022/12/01 10:49:14;;;;;;;399.77;145.90;;;;;;;;;;4970674;28;20729;-52
2022/12/01 10:51:47;;;;;;;346.20;132.73;;;;;;;;;;4966418;28;20365;-52
2022/12/01 10:54:13;;;;;;;516.77;175.83;;;;;;;;;;4965472;28;20213;-53
2022/12/01 10:56:40;;;;;;;547.03;194.33;;;;;;;;;;4954197;28;20222;-55
2022/12/01 10:59:20;;;;;;;511.37;169.10;;;;;;;;;;4955214;28;20191;-51
2022/12/01 11:01:47;;;;;;;485.13;165.07;;;;;;;;;;4957254;28;20213;-53
2022/12/01 11:04:31;;;;;;;455.50;152.33;;;;;;;;;;4952514;28;20242;-54
2022/12/01 11:06:57;;;;;;;537.17;178.43;;;;;;;;;;4957433;28;20267;-54
2022/12/01 11:09:24;;;;;;;528.90;183.53;;;;;;;;;;4956362;28;20205;-52
2022/12/01 11:11:55;;;;;;;399.33;138.37;;;;;;;;;;4966422;28;20282;-53
2022/12/01 11:14:23;;;;;;;438.87;161.80;;;;;;;;;;4964853;28;20817;-52
2022/12/01 11:16:51;;;;;;;706.03;240.20;;;;;;;;;;4954387;28;21547;-52
2022/12/01 11:19:20;;;;;;;446.37;159.23;;;;;;;;;;4939283;28;22468;-52
2022/12/01 11:21:49;;;;;;;635.67;214.50;;;;;;;;;;4960627;28;20225;-52
2022/12/01 11:24:25;;;;;;;394.30;141.03;;;;;;;;;;4967862;28;21276;-54
2022/12/01 11:26:51;;;;;;;416.83;147.10;;;;;;;;;;4974761;28;20259;-52
2022/12/01 11:29:35;;;;;;;378.87;139.80;;;;;;;;;;4979883;28;20221;-53
2022/12/01 11:32:01;;;;;;;460.43;160.43;;;;;;;;;;4964387;28;20650;-53
2022/12/01 11:34:33;;;;;;;574.33;187.47;;;;;;;;;;4951530;28;20235;-52
2022/12/01 11:37:01;;;;;;;525.70;189.93;;;;;;;;;;4957062;28;20737;-53
2022/12/01 11:39:26;;;;;;;422.83;146.03;;;;;;;;;;4963521;28;20217;-51
2022/12/01 11:42:03;;;;;;;510.43;181.70;;;;;;;;;;4973580;28;20217;-53
2022/12/01 11:44:30;;;;;;;479.63;164.53;;;;;;;;;;4963944;28;21148;-51
2022/12/01 11:46:57;;;;;;;616.23;210.23;;;;;;;;;;4942571;28;20206;-51
2022/12/01 11:49:25;;;;;;;374.53;136.47;;;;;;;;;;4962152;28;20276;-54
2022/12/01 11:51:51;;;;;;;479.20;169.00;;;;;;;;;;4964453;28;20220;-52
2022/12/01 11:54:22;;;;;;;620.13;241.67;;;;;;;;;;4966897;28;20223;-52
2022/12/01 11:56:48;;;;;;;515.63;175.83;;;;;;;;;;4951902;28;20324;-53
2022/12/01 11:59:16;;;;;;;542.60;196.93;;;;;;;;;;4953406;28;20325;-52
2022/12/01 12:02:01;;;;;;;478.43;164.13;;;;;;;;;;4950603;28;20531;-51
2022/12/01 12:04:39;;;;;;;476.07;176.57;;;;;;;;;;4952628;28;20304;-54
2022/12/01 12:07:23;;;;;;;398.03;154.80;;;;;;;;;;4943131;28;20291;-52
2022/12/01 12:10:03;;;;;;;515.60;209.23;;;;;;;;;;4946016;28;20220;-51
2022/12/01 12:12:52;;;;;;;541.37;212.63;;;;;;;;;;4951368;28;20428;-52
2022/12/01 12:15:27;;;;;;;521.93;179.37;;;;;;;;;;4949412;28;20280;-51
2022/12/01 12:17:59;;;;;;;619.00;209.37;;;;;;;;;;4953988;28;20355;-52
2022/12/01 12:20:31;;;;;;;442.40;146.50;;;;;;;;;;4954356;28;20879;-54
2022/12/01 12:23:17;;;;;;;445.13;166.53;;;;;;;;;;4953233;28;20209;-53
2022/12/01 12:26:04;;;;;;;545.50;202.33;;;;;;;;;;4943084;28;20355;-52
2022/12/01 12:28:36;;;;;;;602.17;213.23;;;;;;;;;;4933173;28;20594;-52
2022/12/01 12:31:19;;;;;;;485.63;167.80;;;;;;;;;;4953047;28;20217;-53
2022/12/01 12:33:54;;;;;;;532.40;200.13;;;;;;;;;;4952784;28;20271;-52
2022/12/01 12:36:29;;;;;;;623.47;233.23;;;;;;;;;;4940934;28;20782;-54
2022/12/01 12:39:10;;;;;;;635.07;201.83;;;;;;;;;;4956672;28;20307;-54
2022/12/01 12:41:42;;;;;;;494.47;159.27;;;;;;;;;;4947082;28;20221;-51
2022/12/01 12:44:08;;;;;;;442.83;148.27;;;;;;;;;;4960246;28;20212;-52
2022/12/01 12:46:39;;;;;;;583.50;197.53;;;;;;;;;;4954401;28;20378;-52
2022/12/01 12:49:17;;;;;;;538.30;184.73;;;;;;;;;;4945009;28;20221;-52
2022/12/01 12:51:57;;;;;;;459.23;161.00;;;;;;;;;;4944662;28;20217;-52
2022/12/01 12:54:29;;;;;;;483.03;183.40;;;;;;;;;;4951750;28;20217;-52
2022/12/01 12:57:00;;;;;;;479.83;166.20;;;;;;;;;;4948188;28;20214;-52
2022/12/01 12:59:31;;;;;;;556.23;190.10;;;;;;;;;;4948346;28;20220;-52
2022/12/01 13:02:01;;;;;;;593.60;217.57;;;;;;;;;;4944797;28;20212;-53
2022/12/01 13:04:34;;;;;;;505.43;196.77;;;;;;;;;;4932003;28;20373;-53
2022/12/01 13:07:01;;;;;;;472.83;172.50;;;;;;;;;;4946684;28;20273;-51
2022/12/01 13:09:36;;;;;;;604.87;193.37;;;;;;;;;;4952409;28;20217;-53
2022/12/01 13:12:07;;;;;;;464.87;172.17;;;;;;;;;;4956005;28;20957;-52
2022/12/01 13:14:38;;;;;;;552.10;177.63;;;;;;;;;;4961908;28;20248;-52
2022/12/01 13:17:13;;;;;;;533.70;181.93;;;;;;;;;;4955503;28;20178;-51
2022/12/01 13:19:40;;;;;;;535.33;188.40;;;;;;;;;;4949246;28;20190;-53
2022/12/01 13:22:07;;;;;;;480.97;175.13;;;;;;;;;;4947537;28;20213;-52
2022/12/01 13:24:33;;;;;;;572.07;190.97;;;;;;;;;;4948499;28;20233;-51
2022/12/01 13:26:59;;;;;;;647.27;214.80;;;;;;;;;;4940027;28;20306;-51
2022/12/01 13:29:25;;;;;;;580.10;190.70;;;;;;;;;;4949177;28;20635;-54
2022/12/01 13:31:52;;;;;;;501.57;178.73;;;;;;;;;;4954311;28;20276;-54
2022/12/01 13:34:20;;;;;;;503.17;183.10;;;;;;;;;;4949293;28;20431;-53
2022/12/01 13:36:50;;;;;;;635.13;207.97;;;;;;;;;;4945226;28;20217;-52
2022/12/01 13:39:21;;;;;;;537.80;195.87;;;;;;;;;;4957446;28;20220;-53
2022/12/01 13:41:56;;;;;;;447.53;153.37;;;;;;;;;;4949733;28;20218;-53
2022/12/01 13:44:24;;;;;;;507.03;187.97;;;;;;;;;;4940240;28;20213;-54
2022/12/01 13:46:57;;;;;;;660.13;224.43;;;;;;;;;;4950597;28;20263;-53
2022/12/01 13:49:49;;;;;;;360.97;133.13;;;;;;;;;;4959290;28;20615;-55
2022/12/01 13:52:15;;;;;;;423.03;163.97;;;;;;;;;;4943526;28;20713;-53
2022/12/01 13:54:58;;;;;;;396.60;153.93;;;;;;;;;;4957513;28;20232;-53
2022/12/01 13:57:29;;;;;;;466.90;175.47;;;;;;;;;;4952008;28;20923;-52
2022/12/01 13:59:57;;;;;;;480.50;166.37;;;;;;;;;;4958243;28;20236;-54
2022/12/01 14:02:24;;;;;;;537.37;200.37;;;;;;;;;;4958530;28;20256;-52
2022/12/01 14:04:50;;;;;;;505.97;178.77;;;;;;;;;;4947181;28;20204;-54
2022/12/01 14:07:20;;;;;;;492.93;174.60;;;;;;;;;;4945590;28;20244;-52